Main page
METAR-TAF:

METAR-TAF

Airports :

Václav Havel Airport Prague

Prague, Czech Republic

latitude: 50-06N, longitude: 014-15E, elevation: 365 m

Current weather observation

The report was made 20 minutes ago, at 12:00 UTC
Wind 4 kt from the South/Southwest, varying between Southeast and West/Southwest
Temperature 6°C
Humidity 36%
Pressure 1020 hPa
Visibility 10 km or more
no clouds below 1500 m and no cumulonimbus

METAR: LKPR 011200Z 21004KT 140V250 CAVOK 06/M08 Q1020 NOSIG

Time: 14:20 (12:20 UTC)

Forecast

The report was made 1 hour and 20 minutes ago, at 11:00 UTC
Forecast valid from 01 at 12 UTC to 02 at 18 UTC
Wind 6 kt from the Southwest
Visibility 10 km or more
no clouds below 1500 m and no cumulonimbus

TAF: LKPR 011100Z 0112/0218 22006KT CAVOK

Weather observations and forecasts of more than 4000 airports (METAR and TAF reports).

The available stations are represented by yellow and red dots on the map.

Hover mouse over dot to see the name of the station.

Then click to see weather observations and forecasts.

To change the map : click on the green buttons with a black cross to zoom in, on the green button with a dash to zoom out, or on the green arrows for adjacent maps.


METAR-TAF: